createdAt,value
2018-05-25T00:01:44.822Z,72.70
2018-05-25T00:04:13.091Z,72.70
2018-05-25T00:06:41.354Z,73.00
2018-05-25T00:09:09.671Z,73.00
2018-05-25T00:11:40.798Z,73.10
2018-05-25T00:14:09.106Z,73.00
2018-05-25T00:16:37.398Z,73.10
2018-05-25T00:19:05.683Z,73.10
2018-05-25T00:21:34.022Z,73.20
2018-05-25T00:24:03.090Z,73.30
2018-05-25T00:26:31.415Z,73.30
2018-05-25T00:28:59.683Z,73.50
2018-05-25T00:31:28.723Z,73.70
2018-05-25T00:33:57.001Z,73.70
2018-05-25T00:36:25.252Z,73.40
2018-05-25T00:38:53.539Z,73.70
2018-05-25T00:41:21.792Z,73.80
2018-05-25T00:43:50.081Z,73.60
2018-05-25T00:46:18.382Z,73.70
2018-05-25T00:48:47.391Z,73.90
2018-05-25T00:51:15.654Z,73.90
2018-05-25T00:53:43.919Z,74.20
2018-05-25T00:56:12.193Z,74.20
2018-05-25T00:58:40.435Z,74.00
2018-05-25T01:01:09.533Z,74.20
2018-05-25T01:03:38.544Z,74.50
2018-05-25T01:06:06.855Z,74.30
2018-05-25T01:08:35.124Z,74.40
2018-05-25T01:11:03.423Z,74.30
2018-05-25T01:13:31.733Z,74.60
2018-05-25T01:16:00.752Z,74.80
2018-05-25T01:18:29.018Z,74.70
2018-05-25T01:20:57.300Z,74.70
2018-05-25T01:23:25.579Z,74.60
2018-05-25T01:25:53.882Z,75.00
2018-05-25T01:28:22.124Z,75.10
2018-05-25T01:30:50.378Z,75.20
2018-05-25T01:33:19.429Z,75.20
2018-05-25T01:35:47.714Z,75.10
2018-05-25T01:38:15.989Z,75.10
2018-05-25T01:40:44.318Z,75.20
2018-05-25T01:43:13.385Z,75.10
2018-05-25T01:45:41.634Z,75.00
2018-05-25T01:48:09.902Z,75.10
2018-05-25T01:50:38.160Z,75.10
2018-05-25T01:53:06.437Z,75.20
2018-05-25T01:55:42.306Z,75.30
2018-05-25T01:58:10.625Z,75.30
2018-05-25T02:00:38.938Z,75.30
2018-05-25T02:03:07.159Z,75.40
2018-05-25T02:05:35.493Z,75.40
2018-05-25T02:08:03.739Z,75.50
2018-05-25T02:10:32.777Z,75.60
2018-05-25T02:13:01.059Z,75.50
2018-05-25T02:15:29.342Z,75.70
2018-05-25T02:17:57.599Z,75.80
2018-05-25T02:20:25.891Z,75.80
2018-05-25T02:22:54.178Z,75.80
2018-05-25T02:25:23.278Z,76.00
2018-05-25T02:27:51.558Z,76.00
2018-05-25T02:30:20.383Z,77.00
2018-05-25T02:32:49.414Z,76.40
2018-05-25T02:35:17.710Z,76.20
2018-05-25T02:37:46.002Z,76.30
2018-05-25T02:40:14.283Z,76.40
2018-05-25T02:42:42.565Z,76.50
2018-05-25T02:45:10.828Z,76.90
2018-05-25T02:47:39.098Z,76.90
2018-05-25T02:50:07.382Z,76.90
2018-05-25T02:52:35.659Z,77.00
2018-05-25T02:55:04.002Z,77.10
2018-05-25T02:57:32.270Z,77.30
2018-05-25T03:00:00.543Z,77.50
2018-05-25T03:02:28.822Z,77.40
2018-05-25T03:04:57.083Z,77.50
2018-05-25T03:07:26.126Z,77.50
2018-05-25T03:09:54.382Z,77.50
2018-05-25T03:12:22.682Z,77.40
2018-05-25T03:14:50.973Z,77.70
2018-05-25T03:17:19.271Z,77.50
2018-05-25T03:19:49.985Z,78.80
2018-05-25T03:22:18.253Z,77.90
2018-05-25T03:24:46.499Z,77.90
2018-05-25T03:27:14.771Z,78.10
2018-05-25T03:29:43.097Z,78.10
2018-05-25T03:32:11.784Z,78.30
2018-05-25T03:34:40.243Z,78.30
2018-05-25T03:37:08.533Z,78.40
2018-05-25T03:39:36.768Z,78.40
2018-05-25T03:42:05.978Z,78.50
2018-05-25T03:44:35.019Z,78.80
2018-05-25T03:47:03.302Z,78.70
2018-05-25T03:49:31.573Z,78.80
2018-05-25T03:51:59.819Z,79.20
2018-05-25T03:54:38.704Z,79.40
2018-05-25T04:00:25.922Z,79.80
2018-05-25T04:02:55.897Z,79.50
2018-05-25T04:05:24.262Z,79.80
2018-05-25T04:07:53.329Z,79.80
2018-05-25T04:10:22.397Z,79.80
2018-05-25T04:12:50.683Z,79.80
2018-05-25T04:15:18.942Z,79.80
2018-05-25T04:17:47.263Z,79.50
2018-05-25T04:20:18.845Z,80.00
2018-05-25T04:22:47.259Z,80.00
2018-05-25T04:25:17.472Z,79.90
2018-05-25T04:27:50.064Z,79.80
2018-05-25T04:30:20.413Z,80.30
2018-05-25T04:32:52.019Z,80.20
2018-05-25T04:35:27.355Z,80.30
2018-05-25T04:40:42.256Z,80.60
2018-05-25T04:43:11.495Z,80.60
2018-05-25T04:45:40.560Z,80.50
2018-05-25T04:48:08.882Z,80.40
2018-05-25T04:50:37.179Z,80.60
2018-05-25T04:53:05.493Z,80.60
2018-05-25T04:55:33.744Z,80.50
2018-05-25T04:58:02.060Z,80.70
2018-05-25T05:00:31.089Z,80.50
2018-05-25T05:02:59.369Z,80.50
2018-05-25T05:05:27.638Z,80.30
2018-05-25T05:07:55.901Z,80.50
2018-05-25T05:10:24.923Z,80.60
2018-05-25T05:12:53.178Z,80.50
2018-05-25T05:15:21.467Z,80.50
2018-05-25T05:17:49.755Z,80.60
2018-05-25T05:20:18.043Z,80.60
2018-05-25T05:22:46.362Z,80.60
2018-05-25T05:25:15.423Z,80.60
2018-05-25T05:27:43.685Z,80.50
2018-05-25T05:30:12.002Z,80.60
2018-05-25T05:32:40.303Z,80.50
2018-05-25T05:35:09.371Z,80.60
2018-05-25T05:37:38.482Z,80.80
2018-05-25T05:40:07.523Z,81.20
2018-05-25T05:42:35.817Z,80.50
2018-05-25T05:45:04.129Z,80.50
2018-05-25T05:47:33.189Z,80.80
2018-05-25T05:50:01.460Z,80.60
2018-05-25T05:52:29.744Z,80.60
2018-05-25T05:54:58.062Z,80.60
2018-05-25T05:57:27.118Z,80.90
2018-05-25T05:59:55.396Z,80.70
2018-05-25T06:02:23.710Z,80.80
2018-05-25T06:04:52.839Z,81.20
2018-05-25T06:07:21.143Z,81.20
2018-05-25T06:09:49.408Z,81.20
2018-05-25T06:12:17.767Z,81.10
2018-05-25T06:14:46.039Z,81.40
2018-05-25T06:17:14.355Z,81.70
2018-05-25T06:19:42.699Z,81.70
2018-05-25T06:22:10.989Z,81.80
2018-05-25T06:24:39.264Z,81.90
2018-05-25T06:27:07.563Z,81.80
2018-05-25T06:29:36.286Z,82.10
2018-05-25T06:32:04.627Z,81.80
2018-05-25T06:34:32.925Z,81.40
2018-05-25T06:37:01.232Z,81.40
2018-05-25T06:39:30.319Z,80.30
2018-05-25T06:41:59.343Z,79.90
2018-05-25T06:44:27.708Z,79.70
2018-05-25T06:46:56.774Z,78.50
2018-05-25T06:49:25.066Z,78.30
2018-05-25T06:51:54.170Z,77.60
2018-05-25T06:54:23.238Z,77.50
2018-05-25T06:56:51.526Z,77.40
2018-05-25T06:59:20.688Z,77.40
2018-05-25T07:01:48.949Z,77.30
2018-05-25T07:04:17.222Z,77.20
2018-05-25T07:06:45.488Z,77.00
2018-05-25T07:09:13.817Z,77.10
2018-05-25T07:11:42.177Z,77.10
2018-05-25T07:14:10.464Z,77.00
2018-05-25T07:16:38.778Z,77.00
2018-05-25T07:19:07.814Z,76.90
2018-05-25T07:21:36.101Z,76.80
2018-05-25T07:24:04.490Z,76.90
2018-05-25T07:26:32.794Z,76.70
2018-05-25T07:29:01.868Z,76.50
2018-05-25T07:31:30.195Z,76.40
2018-05-25T07:33:58.549Z,76.20
2018-05-25T07:36:27.619Z,75.60
2018-05-25T07:38:55.943Z,75.60
2018-05-25T07:41:24.216Z,75.00
2018-05-25T07:43:53.258Z,74.30
2018-05-25T07:46:21.559Z,74.30
2018-05-25T07:48:49.837Z,74.10
2018-05-25T07:51:18.148Z,73.70
2018-05-25T07:53:46.418Z,73.60
2018-05-25T07:56:14.700Z,73.40
2018-05-25T07:58:43.078Z,73.30
2018-05-25T08:01:11.386Z,73.00
2018-05-25T08:03:39.714Z,73.10
2018-05-25T08:06:08.806Z,71.80
2018-05-25T08:08:37.864Z,71.50
2018-05-25T08:11:06.174Z,71.30
2018-05-25T08:13:35.371Z,70.10
2018-05-25T08:16:03.662Z,70.10
2018-05-25T08:18:32.749Z,69.20
2018-05-25T08:21:01.859Z,68.70
2018-05-25T08:23:30.125Z,68.60
2018-05-25T08:25:59.156Z,68.30
2018-05-25T08:28:27.479Z,68.20
2018-05-25T08:30:55.814Z,68.40
2018-05-25T08:33:24.084Z,68.30
2018-05-25T08:35:52.344Z,68.30
2018-05-25T08:38:21.422Z,67.40
2018-05-25T08:40:50.465Z,67.40
2018-05-25T08:43:18.845Z,67.40
2018-05-25T08:45:47.178Z,67.10
2018-05-25T08:48:16.263Z,66.50
2018-05-25T08:50:45.323Z,66.60
2018-05-25T08:53:13.643Z,66.60
2018-05-25T08:55:42.693Z,66.80
2018-05-25T08:58:11.007Z,66.70
2018-05-25T09:00:39.291Z,66.20
2018-05-25T09:03:08.436Z,65.80
2018-05-25T09:05:36.864Z,65.70
2018-05-25T09:08:05.948Z,64.70
2018-05-25T09:10:34.995Z,64.60
2018-05-25T09:13:04.400Z,63.90
2018-05-25T09:15:32.687Z,63.40
2018-05-25T09:18:00.953Z,62.90
2018-05-25T09:20:29.830Z,62.90
2018-05-25T09:22:58.745Z,62.70
2018-05-25T09:25:28.120Z,62.50
2018-05-25T09:27:56.419Z,61.80
2018-05-25T09:30:24.739Z,61.80
2018-05-25T09:32:53.196Z,61.60
2018-05-25T09:35:22.276Z,60.80
2018-05-25T09:37:50.545Z,60.70
2018-05-25T09:40:18.789Z,61.10
2018-05-25T09:42:47.872Z,61.10
2018-05-25T09:45:16.148Z,61.00
2018-05-25T09:47:44.461Z,61.20
2018-05-25T09:50:13.035Z,60.80
2018-05-25T09:52:41.474Z,59.80
2018-05-25T09:55:09.847Z,59.50
2018-05-25T09:57:38.201Z,59.60
2018-05-25T10:00:06.544Z,59.30
2018-05-25T10:02:35.606Z,58.80
2018-05-25T10:05:03.935Z,58.80
2018-05-25T10:07:32.289Z,58.60
2018-05-25T10:10:01.382Z,57.60
2018-05-25T10:12:30.443Z,58.00
2018-05-25T10:14:58.763Z,58.00
2018-05-25T10:17:27.815Z,58.10
2018-05-25T10:19:57.079Z,58.00
2018-05-25T10:22:26.048Z,58.00
2018-05-25T10:24:55.112Z,57.90
2018-05-25T10:27:23.393Z,57.90
2018-05-25T10:29:51.670Z,58.00
2018-05-25T10:32:19.962Z,58.00
2018-05-25T10:34:49.014Z,57.00
2018-05-25T10:37:17.343Z,57.60
2018-05-25T10:39:46.397Z,56.80
2018-05-25T10:42:14.672Z,56.70
2018-05-25T10:44:42.979Z,56.70
2018-05-25T10:47:11.258Z,56.80
2018-05-25T10:49:40.311Z,56.80
2018-05-25T10:52:08.605Z,56.80
2018-05-25T10:54:36.884Z,56.60
2018-05-25T10:57:05.174Z,56.10
2018-05-25T10:59:33.473Z,56.00
2018-05-25T11:02:02.565Z,55.60
2018-05-25T11:04:31.616Z,55.10
2018-05-25T11:06:59.931Z,55.10
2018-05-25T11:09:29.019Z,54.70
2018-05-25T11:11:58.074Z,54.30
2018-05-25T11:14:26.404Z,54.30
2018-05-25T11:16:55.484Z,54.00
2018-05-25T11:19:23.951Z,54.00
2018-05-25T11:21:52.305Z,53.80
2018-05-25T11:24:20.642Z,54.20
2018-05-25T11:26:49.736Z,53.70
2018-05-25T11:29:18.822Z,53.50
2018-05-25T11:31:47.990Z,53.10
2018-05-25T11:34:16.263Z,53.10
2018-05-25T11:36:44.524Z,53.20
2018-05-25T11:39:12.934Z,53.20
2018-05-25T11:41:41.207Z,53.20
2018-05-25T11:44:09.479Z,53.80
2018-05-25T11:46:37.749Z,53.40
2018-05-25T11:49:06.063Z,53.30
2018-05-25T11:51:35.100Z,53.20
2018-05-25T11:54:03.377Z,53.10
2018-05-25T11:56:31.643Z,53.10
2018-05-25T11:58:59.910Z,53.10
2018-05-25T12:01:28.185Z,52.90
2018-05-25T12:03:56.478Z,52.90
2018-05-25T12:06:24.779Z,52.60
2018-05-25T12:08:53.103Z,52.10
2018-05-25T12:11:22.134Z,51.50
2018-05-25T12:13:50.412Z,51.50
2018-05-25T12:16:18.714Z,51.50
2018-05-25T12:18:46.998Z,52.10
2018-05-25T12:21:15.258Z,52.30
2018-05-25T12:23:43.551Z,52.50
2018-05-25T12:26:11.866Z,52.50
2018-05-25T12:28:40.198Z,52.50
2018-05-25T12:31:08.480Z,52.30
2018-05-25T12:33:36.834Z,52.10
2018-05-25T12:36:05.149Z,51.90
2018-05-25T12:38:34.310Z,51.40
2018-05-25T12:41:02.608Z,51.30
2018-05-25T12:43:30.893Z,51.40
2018-05-25T12:45:59.953Z,51.30
2018-05-25T12:48:28.218Z,51.30
2018-05-25T12:50:56.504Z,50.90
2018-05-25T12:53:25.572Z,50.70
2018-05-25T12:55:54.560Z,51.20
2018-05-25T12:58:23.627Z,51.50
2018-05-25T13:00:51.915Z,51.50
2018-05-25T13:03:20.235Z,51.50
2018-05-25T13:05:48.542Z,51.80
2018-05-25T13:08:16.823Z,51.80
2018-05-25T13:10:45.107Z,52.20
2018-05-25T13:13:13.418Z,52.10
2018-05-25T13:15:42.496Z,52.30
2018-05-25T13:18:10.778Z,52.30
2018-05-25T13:20:39.833Z,52.30
2018-05-25T13:23:08.094Z,52.20
2018-05-25T13:25:36.351Z,52.00
2018-05-25T13:28:04.607Z,52.10
2018-05-25T13:30:33.652Z,52.10
2018-05-25T13:33:01.950Z,52.00
2018-05-25T13:35:30.205Z,51.90
2018-05-25T13:37:58.523Z,51.80
2018-05-25T13:40:26.781Z,51.70
2018-05-25T13:42:55.099Z,51.80
2018-05-25T13:45:23.353Z,51.90
2018-05-25T13:47:51.699Z,52.40
2018-05-25T13:50:19.959Z,52.80
2018-05-25T13:52:48.281Z,53.00
2018-05-25T13:55:16.684Z,53.20
2018-05-25T13:57:45.762Z,52.90
2018-05-25T14:00:14.032Z,52.90
2018-05-25T14:02:42.339Z,53.30
2018-05-25T14:05:11.399Z,53.20
2018-05-25T14:07:39.699Z,53.20
2018-05-25T14:10:08.759Z,53.70
2018-05-25T14:12:37.053Z,53.70
2018-05-25T14:15:05.369Z,53.80
2018-05-25T14:17:33.639Z,54.00
2018-05-25T14:20:01.979Z,54.20
2018-05-25T14:22:30.301Z,54.40
2018-05-25T14:24:58.616Z,54.40
2018-05-25T14:27:26.915Z,54.40
2018-05-25T14:29:55.198Z,54.40
2018-05-25T14:32:23.497Z,54.30
2018-05-25T14:34:52.601Z,54.00
2018-05-25T14:37:20.900Z,54.00
2018-05-25T14:39:49.150Z,54.00
2018-05-25T14:42:18.174Z,54.40
2018-05-25T14:44:47.187Z,54.30
2018-05-25T14:47:15.517Z,54.30
2018-05-25T14:49:45.854Z,54.40
2018-05-25T14:52:14.125Z,54.40
2018-05-25T14:54:42.397Z,54.30
2018-05-25T14:57:10.700Z,54.00
2018-05-25T14:59:39.015Z,54.00
2018-05-25T15:02:07.279Z,54.00
2018-05-25T15:04:35.558Z,53.80
2018-05-25T15:07:03.876Z,53.70
2018-05-25T15:09:32.161Z,53.80
2018-05-25T15:12:01.268Z,53.80
2018-05-25T15:14:29.583Z,53.80
2018-05-25T15:16:57.862Z,53.50
2018-05-25T15:19:26.202Z,53.50
2018-05-25T15:21:54.457Z,53.30
2018-05-25T15:24:23.545Z,53.40
2018-05-25T15:26:52.603Z,52.90
2018-05-25T15:29:20.902Z,52.90
2018-05-25T15:31:49.200Z,52.70
2018-05-25T15:34:18.254Z,51.70
2018-05-25T15:36:46.548Z,51.70
2018-05-25T15:39:14.848Z,51.30
2018-05-25T15:41:43.918Z,50.80
2018-05-25T15:44:12.262Z,50.80
2018-05-25T15:46:40.530Z,50.70
2018-05-25T15:49:08.795Z,50.80
2018-05-25T15:51:37.104Z,50.40
2018-05-25T15:54:05.463Z,50.20
2018-05-25T15:56:33.739Z,50.00
2018-05-25T15:59:02.029Z,49.90
2018-05-25T16:01:30.298Z,49.80
2018-05-25T16:03:58.555Z,49.70
2018-05-25T16:06:26.844Z,49.60
2018-05-25T16:08:55.184Z,49.40
2018-05-25T16:11:24.230Z,49.20
2018-05-25T16:13:52.575Z,49.20
2018-05-25T16:16:21.617Z,48.90
2018-05-25T16:18:49.862Z,48.90
2018-05-25T16:21:18.140Z,49.00
2018-05-25T16:23:46.409Z,49.00
2018-05-25T16:26:14.650Z,48.70
2018-05-25T16:28:42.947Z,48.80
2018-05-25T16:31:11.991Z,48.90
2018-05-25T16:33:40.271Z,48.90
2018-05-25T16:36:08.528Z,49.00
2018-05-25T16:38:36.856Z,49.30
2018-05-25T16:41:05.889Z,49.10
2018-05-25T16:43:34.179Z,49.10
2018-05-25T16:46:02.475Z,49.00
2018-05-25T16:48:30.759Z,48.90
2018-05-25T16:50:59.048Z,48.90
2018-05-25T16:53:27.320Z,48.80
2018-05-25T16:55:55.593Z,48.70
2018-05-25T16:58:23.903Z,48.80
2018-05-25T17:00:52.952Z,49.30
2018-05-25T17:03:21.210Z,49.30
2018-05-25T17:05:49.541Z,49.50
2018-05-25T17:08:18.597Z,49.50
2018-05-25T17:10:46.883Z,49.50
2018-05-25T17:13:15.151Z,49.80
2018-05-25T17:15:43.435Z,49.90
2018-05-25T17:18:11.730Z,49.90
2018-05-25T17:20:40.039Z,49.90
2018-05-25T17:23:08.347Z,50.10
2018-05-25T17:25:36.620Z,50.20
2018-05-25T17:28:04.918Z,50.20
2018-05-25T17:30:33.230Z,50.20
2018-05-25T17:33:01.465Z,50.30
2018-05-25T17:35:29.758Z,50.40
2018-05-25T17:37:58.124Z,50.50
2018-05-25T17:40:26.376Z,50.60
2018-05-25T17:42:55.402Z,50.80
2018-05-25T17:45:23.727Z,50.80
2018-05-25T17:47:52.040Z,50.80
2018-05-25T17:50:20.304Z,50.80
2018-05-25T17:52:48.582Z,50.80
2018-05-25T17:55:16.901Z,50.70
2018-05-25T17:57:45.204Z,50.60
2018-05-25T18:00:14.212Z,50.80
2018-05-25T18:02:42.499Z,50.70
2018-05-25T18:05:11.595Z,50.90
2018-05-25T18:07:39.910Z,50.90
2018-05-25T18:10:08.223Z,51.10
2018-05-25T18:12:37.349Z,51.30
2018-05-25T18:15:05.643Z,51.20
2018-05-25T18:17:33.924Z,51.40
2018-05-25T18:20:02.266Z,51.40
2018-05-25T18:22:30.537Z,51.60
2018-05-25T18:24:59.627Z,51.60
2018-05-25T18:27:35.498Z,51.60
2018-05-25T18:30:03.859Z,51.50
2018-05-25T18:32:34.204Z,51.80
2018-05-25T18:35:02.556Z,51.80
2018-05-25T18:40:57.858Z,52.00
2018-05-25T18:43:26.132Z,52.00
2018-05-25T18:45:54.374Z,52.00
2018-05-25T18:48:22.675Z,52.20
2018-05-25T18:50:54.769Z,52.20
2018-05-25T18:53:23.054Z,52.10
2018-05-25T18:55:52.098Z,52.40
2018-05-25T18:58:20.363Z,52.40
2018-05-25T19:00:48.614Z,52.50
2018-05-25T19:03:17.669Z,52.70
2018-05-25T19:05:46.022Z,52.70
2018-05-25T19:08:14.308Z,53.30
2018-05-25T19:10:42.699Z,52.80
2018-05-25T19:13:11.042Z,52.80
2018-05-25T19:15:39.318Z,52.80
2018-05-25T19:18:07.603Z,52.80
2018-05-25T19:20:35.887Z,52.80
2018-05-25T19:23:04.219Z,52.90
2018-05-25T19:25:33.298Z,53.30
2018-05-25T19:28:01.590Z,53.30
2018-05-25T19:30:30.733Z,54.00
2018-05-25T19:32:59.099Z,54.00
2018-05-25T19:35:27.396Z,54.20
2018-05-25T19:37:55.704Z,54.50
2018-05-25T19:40:24.016Z,54.70
2018-05-25T19:42:53.113Z,55.10
2018-05-25T19:45:22.265Z,55.10
2018-05-25T19:47:50.503Z,55.10
2018-05-25T19:50:18.805Z,55.20
2018-05-25T19:52:47.129Z,55.30
2018-05-25T19:55:16.241Z,55.50
2018-05-25T19:57:44.612Z,55.50
2018-05-25T20:00:13.683Z,55.70
2018-05-25T20:02:41.984Z,55.60
2018-05-25T20:05:11.012Z,55.90
2018-05-25T20:07:39.326Z,55.80
2018-05-25T20:10:07.645Z,56.00
2018-05-25T20:12:35.993Z,56.10
2018-05-25T20:15:05.029Z,56.50
2018-05-25T20:17:33.335Z,56.20
2018-05-25T20:20:02.263Z,56.40
2018-05-25T20:22:31.320Z,56.50
2018-05-25T20:25:00.520Z,56.50
2018-05-25T20:27:28.824Z,56.60
2018-05-25T20:29:57.171Z,56.60
2018-05-25T20:32:25.475Z,56.70
2018-05-25T20:34:53.790Z,56.70
2018-05-25T20:37:22.084Z,57.20
2018-05-25T20:39:50.358Z,56.80
2018-05-25T20:42:18.701Z,56.80
2018-05-25T20:44:47.742Z,56.80
2018-05-25T20:47:16.139Z,56.80
2018-05-25T20:49:44.491Z,56.70
2018-05-25T20:52:12.768Z,56.70
2018-05-25T20:54:41.038Z,56.70
2018-05-25T20:57:09.318Z,56.70
2018-05-25T20:59:37.619Z,56.70
2018-05-25T21:02:05.943Z,56.70
2018-05-25T21:04:34.980Z,56.90
2018-05-25T21:07:03.323Z,56.90
2018-05-25T21:09:32.513Z,57.10
2018-05-25T21:12:00.870Z,57.10
2018-05-25T21:14:29.165Z,57.20
2018-05-25T21:16:58.249Z,57.40
2018-05-25T21:19:26.575Z,57.30
2018-05-25T21:21:54.955Z,57.60
2018-05-25T21:24:23.255Z,57.90
2018-05-25T21:26:51.575Z,58.00
2018-05-25T21:29:20.654Z,58.30
2018-05-25T21:31:48.963Z,58.20
2018-05-25T21:34:18.013Z,58.60
2018-05-25T21:36:46.319Z,58.50
2018-05-25T21:39:15.424Z,58.90
2018-05-25T21:41:44.467Z,59.10
2018-05-25T21:44:12.771Z,59.00
2018-05-25T21:46:41.099Z,59.20
2018-05-25T21:49:10.195Z,59.70
2018-05-25T21:51:38.571Z,59.40
2018-05-25T21:54:06.896Z,59.50
2018-05-25T21:56:35.169Z,59.60
2018-05-25T21:59:03.506Z,59.70
2018-05-25T22:01:31.824Z,59.60
2018-05-25T22:04:00.222Z,59.70
2018-05-25T22:06:28.582Z,59.60
2018-05-25T22:08:56.950Z,59.30
2018-05-25T22:11:25.360Z,59.70
2018-05-25T22:13:54.470Z,59.60
2018-05-25T22:16:23.626Z,59.70
2018-05-25T22:18:51.896Z,59.60
2018-05-25T22:21:20.166Z,59.70
2018-05-25T22:23:48.448Z,59.80
2018-05-25T22:26:16.748Z,59.80
2018-05-25T22:28:45.088Z,59.90
2018-05-25T22:31:13.375Z,59.90
2018-05-25T22:33:41.660Z,60.00
2018-05-25T22:36:10.044Z,60.00
2018-05-25T22:38:38.381Z,60.10
2018-05-25T22:41:06.701Z,60.10
2018-05-25T22:43:52.989Z,60.20
2018-05-25T22:46:38.970Z,60.40
2018-05-25T22:49:25.032Z,60.40
2018-05-25T22:52:11.008Z,60.50
2018-05-25T22:54:43.010Z,61.10
2018-05-25T22:57:11.280Z,60.90
2018-05-25T22:59:39.609Z,62.10
2018-05-25T23:02:07.894Z,61.70
2018-05-25T23:04:36.264Z,61.80
2018-05-25T23:07:04.723Z,62.00
2018-05-25T23:09:33.083Z,62.00
2018-05-25T23:12:01.379Z,62.10
2018-05-25T23:14:29.688Z,62.50
2018-05-25T23:16:58.023Z,62.50
2018-05-25T23:19:26.383Z,63.40
2018-05-25T23:21:54.730Z,62.40
2018-05-25T23:24:23.792Z,62.50
2018-05-25T23:26:52.105Z,62.40
2018-05-25T23:29:21.250Z,62.80
2018-05-25T23:31:49.606Z,62.70
2018-05-25T23:34:17.992Z,62.90
2018-05-25T23:36:46.307Z,63.10
2018-05-25T23:39:15.029Z,63.30
2018-05-25T23:41:44.187Z,63.60
2018-05-25T23:44:12.547Z,63.60
2018-05-25T23:46:40.864Z,63.70
2018-05-25T23:49:09.243Z,64.00
2018-05-25T23:51:37.561Z,64.10
2018-05-25T23:54:05.906Z,64.40
2018-05-25T23:56:35.010Z,64.80
2018-05-25T23:59:04.110Z,65.00
